Time;durP1;ratioP1;P1;durP2;ratioP2;P2;SDS_P1;SDS_P2;PMS_P1;PMS_P2;Temp;Humidity;BMP_temperature;BMP_pressure;BME280_temperature;BME280_humidity;BME280_pressure;Samples;Min_cycle;Max_cycle;Signal;HPM_P1;HPM_P2
2022/11/16 00:04:54;;;;;;;17.98;11.45;;;;;;;10.25;100.00;99036.50;21028794;28;20071;-83
2022/11/16 00:14:55;;;;;;;18.50;12.73;;;;;;;10.25;100.00;99025.16;21021771;28;20066;-83
2022/11/16 00:24:57;;;;;;;18.70;11.65;;;;;;;10.26;100.00;99019.88;21016862;28;20056;-83
2022/11/16 00:34:58;;;;;;;24.80;13.43;;;;;;;10.22;100.00;99012.16;20992879;28;20071;-83
2022/11/16 00:45:00;;;;;;;23.30;12.23;;;;;;;10.20;100.00;98996.50;21010420;28;20362;-83
2022/11/16 00:55:01;;;;;;;20.10;13.30;;;;;;;10.22;100.00;98997.31;21008495;28;20045;-82
2022/11/16 01:05:02;;;;;;;21.90;12.95;;;;;;;10.23;100.00;98991.16;20995159;28;20081;-83
2022/11/16 01:15:04;;;;;;;19.80;12.52;;;;;;;10.23;100.00;98988.56;20988653;28;20052;-83
2022/11/16 01:25:05;;;;;;;21.05;14.10;;;;;;;10.24;100.00;98992.06;20988812;28;20139;-83
2022/11/16 01:35:07;;;;;;;19.42;13.13;;;;;;;10.25;100.00;98991.13;20987798;28;20436;-83
2022/11/16 01:45:08;;;;;;;19.30;12.82;;;;;;;10.27;100.00;98992.81;21000768;28;20417;-83
2022/11/16 01:55:10;;;;;;;24.73;15.73;;;;;;;10.29;100.00;98990.13;21002940;28;20519;-83
2022/11/16 02:05:12;;;;;;;23.13;15.40;;;;;;;10.29;100.00;99000.59;20987961;28;20056;-83
2022/11/16 02:15:14;;;;;;;27.45;15.93;;;;;;;10.25;100.00;98998.97;20989009;28;20054;-83
2022/11/16 02:25:15;;;;;;;28.83;17.27;;;;;;;10.26;100.00;99000.72;20998878;28;20048;-83
2022/11/16 02:35:17;;;;;;;26.58;17.17;;;;;;;10.22;100.00;99009.56;21017773;28;20040;-82
2022/11/16 02:45:18;;;;;;;23.05;15.80;;;;;;;10.23;100.00;98974.63;21000740;28;20098;-82
2022/11/16 02:55:19;;;;;;;24.60;15.63;;;;;;;10.21;100.00;98963.38;21018309;28;20500;-83
2022/11/16 03:05:30;;;;;;;22.67;14.15;;;;;;;10.18;100.00;98981.78;21001440;28;20070;-82
2022/11/16 03:15:32;;;;;;;21.77;14.45;;;;;;;10.12;100.00;99002.94;21022562;22;20060;-78
2022/11/16 03:25:33;;;;;;;24.05;14.77;;;;;;;10.13;100.00;98986.34;20996150;28;20049;-77
2022/11/16 03:35:35;;;;;;;23.85;14.63;;;;;;;10.11;100.00;98978.56;20993367;28;20056;-77
2022/11/16 03:45:36;;;;;;;23.52;14.43;;;;;;;10.13;100.00;98984.56;20992628;28;20507;-74
2022/11/16 03:55:38;;;;;;;21.52;14.18;;;;;;;10.10;100.00;98983.81;20992128;28;20496;-75
2022/11/16 04:28:11;;;;;;;24.77;15.38;;;;;;;10.16;100.00;98994.09;20919524;28;20400;-75
2022/11/16 04:47:06;;;;;;;25.80;15.95;;;;;;;9.98;100.00;99009.53;21070862;28;20048;-75
2022/11/16 04:57:08;;;;;;;33.05;16.73;;;;;;;10.05;100.00;99018.00;21069226;28;20048;-75
2022/11/16 05:07:10;;;;;;;30.60;15.90;;;;;;;10.14;100.00;99015.03;21069292;28;20055;-77
2022/11/16 05:17:12;;;;;;;25.52;14.70;;;;;;;10.23;100.00;99021.72;21058588;28;20102;-77
2022/11/16 05:27:13;;;;;;;31.30;16.70;;;;;;;10.06;100.00;99006.66;20986705;28;20040;-77
2022/11/16 05:37:15;;;;;;;31.75;18.52;;;;;;;10.00;100.00;99020.75;21063655;28;20444;-77
2022/11/16 05:47:16;;;;;;;33.30;17.83;;;;;;;10.00;100.00;99020.75;21063927;28;20055;-77
2022/11/16 05:57:17;;;;;;;29.27;16.48;;;;;;;9.97;100.00;99040.97;21062788;28;20048;-76
2022/11/16 06:07:19;;;;;;;29.90;18.38;;;;;;;9.92;100.00;99046.34;21062305;28;20044;-77
2022/11/16 06:17:20;;;;;;;32.30;18.63;;;;;;;9.79;100.00;99054.66;21014425;28;1162522;-76
2022/11/16 06:27:22;;;;;;;38.72;21.40;;;;;;;9.74;100.00;99068.75;20981653;28;20121;-76
2022/11/16 06:37:23;;;;;;;34.22;17.85;;;;;;;9.54;100.00;99073.78;20982581;28;20527;-76
2022/11/16 06:47:25;;;;;;;31.60;17.13;;;;;;;9.45;100.00;99074.94;20981260;28;20049;-77
2022/11/16 06:57:26;;;;;;;28.67;16.13;;;;;;;9.35;100.00;99080.50;21035287;28;20135;-74
2022/11/16 07:07:28;;;;;;;30.70;15.00;;;;;;;9.39;100.00;99090.81;21067011;28;20093;-74
2022/11/16 07:17:29;;;;;;;26.63;14.77;;;;;;;9.42;100.00;99095.91;21066859;28;20393;-75
2022/11/16 07:27:30;;;;;;;28.63;15.88;;;;;;;9.55;100.00;99119.06;20992179;28;20110;-75
2022/11/16 07:37:32;;;;;;;29.00;15.48;;;;;;;9.74;100.00;99128.84;20990186;28;20078;-75
2022/11/16 07:47:33;;;;;;;28.40;13.95;;;;;;;9.65;100.00;99125.69;20992467;28;20062;-76
2022/11/16 07:57:35;;;;;;;27.48;14.20;;;;;;;9.76;100.00;99132.25;20991523;28;20048;-75
2022/11/16 08:07:36;;;;;;;22.45;12.60;;;;;;;9.81;100.00;99124.25;20963402;28;20040;-76
2022/11/16 08:17:38;;;;;;;25.27;11.98;;;;;;;10.03;100.00;99132.25;20946556;28;20500;-75
2022/11/16 08:27:39;;;;;;;22.50;11.85;;;;;;;10.17;100.00;99129.19;20950455;28;20204;-75
2022/11/16 08:37:40;;;;;;;18.35;10.75;;;;;;;10.32;100.00;99131.28;20933105;28;20057;-74
2022/11/16 08:47:42;;;;;;;17.88;10.45;;;;;;;10.48;100.00;99127.22;20910044;28;20040;-73
2022/11/16 08:57:43;;;;;;;15.73;8.43;;;;;;;10.61;100.00;99148.56;20946708;28;20481;-74
2022/11/16 09:07:45;;;;;;;16.35;8.23;;;;;;;10.77;100.00;99159.34;20941586;28;20052;-72
2022/11/16 09:17:46;;;;;;;16.40;7.75;;;;;;;10.74;100.00;99154.22;20950445;28;20056;-72
2022/11/16 09:27:47;;;;;;;13.98;8.05;;;;;;;10.75;100.00;99156.78;20906970;28;20605;-70
2022/11/16 09:37:49;;;;;;;13.70;8.50;;;;;;;10.86;100.00;99156.38;20981286;28;20075;-73
2022/11/16 09:47:51;;;;;;;14.23;7.93;;;;;;;11.05;100.00;99154.78;20981865;28;20049;-72
2022/11/16 09:57:52;;;;;;;18.00;8.13;;;;;;;11.22;100.00;99167.25;20981735;28;20052;-72
2022/11/16 10:07:53;;;;;;;14.82;8.88;;;;;;;11.74;100.00;99175.72;20981635;28;20051;-73
2022/11/16 10:17:54;;;;;;;10.88;6.63;;;;;;;12.05;100.00;99159.59;20981567;28;20408;-73
2022/11/16 10:27:56;;;;;;;8.70;4.50;;;;;;;11.91;100.00;99135.72;20980118;28;20090;-73
2022/11/16 10:38:02;;;;;;;9.15;4.68;;;;;;;12.11;100.00;99134.88;20980826;28;20409;-73
2022/11/16 10:48:04;;;;;;;6.55;2.92;;;;;;;12.33;100.00;99112.06;20993745;28;20416;-73
2022/11/16 10:58:05;;;;;;;7.82;2.08;;;;;;;12.54;100.00;99099.75;20995342;28;20040;-72
2022/11/16 11:08:07;;;;;;;7.72;1.98;;;;;;;12.80;100.00;99095.13;20994097;28;20044;-73
2022/11/16 11:18:08;;;;;;;4.57;1.40;;;;;;;12.83;100.00;99084.44;20994426;28;20048;-72
2022/11/16 11:28:10;;;;;;;6.50;1.30;;;;;;;13.22;100.00;99086.16;20993687;28;20052;-72
2022/11/16 11:38:11;;;;;;;5.85;1.45;;;;;;;13.18;100.00;99081.97;20993051;28;20055;-73
2022/11/16 11:48:12;;;;;;;4.82;1.13;;;;;;;13.20;100.00;99072.22;20992307;28;20091;-73
2022/11/16 11:58:14;;;;;;;5.28;1.73;;;;;;;13.09;100.00;99070.97;20989656;28;20085;-72
2022/11/16 12:08:16;;;;;;;7.68;1.83;;;;;;;12.79;100.00;99051.34;20989405;28;20516;-72
2022/11/16 12:18:17;;;;;;;5.03;1.33;;;;;;;13.15;100.00;99047.94;20972370;28;20052;-71
2022/11/16 12:28:18;;;;;;;11.43;1.52;;;;;;;13.10;100.00;99041.13;20906397;28;20052;-70
2022/11/16 12:38:20;;;;;;;6.95;1.30;;;;;;;13.21;100.00;99026.63;20906045;28;20471;-70
2022/11/16 12:48:26;;;;;;;5.57;1.63;;;;;;;13.02;100.00;99016.97;20904409;28;20053;-71
2022/11/16 12:58:27;;;;;;;10.88;1.70;;;;;;;13.18;100.00;99000.50;20904256;28;20551;-71
2022/11/16 13:08:29;;;;;;;9.02;2.15;;;;;;;13.02;100.00;98992.47;20901154;28;20064;-71
2022/11/16 13:18:30;;;;;;;6.60;1.23;;;;;;;13.32;100.00;98984.94;20920449;28;20546;-71
2022/11/16 13:28:32;;;;;;;4.22;1.23;;;;;;;13.27;100.00;98985.16;20984320;28;20460;-71
2022/11/16 13:38:34;;;;;;;6.90;1.30;;;;;;;13.14;100.00;98972.66;20983678;28;20554;-71
2022/11/16 13:48:36;;;;;;;8.57;1.98;;;;;;;12.99;100.00;98975.09;20983887;28;20542;-71
2022/11/16 13:58:38;;;;;;;7.40;1.52;;;;;;;12.84;100.00;98950.44;20983738;28;20448;-73
2022/11/16 14:08:40;;;;;;;7.03;1.63;;;;;;;12.98;100.00;98941.00;20981893;28;20494;-73
2022/11/16 14:18:41;;;;;;;9.02;1.13;;;;;;;13.40;100.00;98931.97;20988562;28;20040;-72
2022/11/16 14:28:43;;;;;;;6.45;1.45;;;;;;;13.49;100.00;98932.34;20997892;28;20056;-71
2022/11/16 14:38:44;;;;;;;10.52;1.60;;;;;;;13.07;100.00;98944.03;20997390;28;20098;-71
2022/11/16 14:48:45;;;;;;;5.53;1.20;;;;;;;12.78;100.00;98939.34;20995649;28;20053;-71
2022/11/16 14:58:47;;;;;;;6.10;1.15;;;;;;;12.65;100.00;98928.59;20975318;28;20055;-72
2022/11/16 15:08:48;;;;;;;6.35;1.45;;;;;;;12.56;100.00;98935.13;20987100;28;20090;-71
2022/11/16 15:18:49;;;;;;;5.57;1.45;;;;;;;12.41;100.00;98913.97;21000810;28;20549;-72
2022/11/16 15:28:51;;;;;;;9.57;4.72;;;;;;;12.20;100.00;98921.09;20993993;28;20049;-72
2022/11/16 15:38:52;;;;;;;9.55;1.75;;;;;;;11.98;100.00;98880.13;20993256;28;20057;-72
2022/11/16 15:48:54;;;;;;;8.13;1.95;;;;;;;11.79;100.00;98879.22;20991971;28;20063;-72
2022/11/16 15:58:55;;;;;;;5.97;2.13;;;;;;;11.59;100.00;98873.97;20991773;28;20048;-72
2022/11/16 16:08:58;;;;;;;8.20;1.80;;;;;;;11.46;100.00;98874.53;20987520;28;20119;-72
2022/11/16 16:18:59;;;;;;;8.23;2.83;;;;;;;11.37;100.00;98867.06;20987995;28;20056;-72
2022/11/16 16:29:08;;;;;;;7.57;3.60;;;;;;;11.25;100.00;98862.34;20989641;28;20052;-71
2022/11/16 16:39:09;;;;;;;13.07;6.20;;;;;;;11.30;100.00;98858.59;20987583;28;20113;-71
2022/11/16 16:49:11;;;;;;;7.90;3.70;;;;;;;11.34;100.00;98854.09;20988047;28;20090;-72
2022/11/16 16:59:12;;;;;;;7.82;3.30;;;;;;;11.39;100.00;98844.25;20986875;28;20048;-72
2022/11/16 17:09:13;;;;;;;8.85;3.05;;;;;;;11.41;100.00;98847.69;20976247;28;20056;-72
2022/11/16 17:19:15;;;;;;;15.93;7.55;;;;;;;11.44;100.00;98844.91;20914879;28;20144;-72
2022/11/16 17:29:16;;;;;;;15.95;6.03;;;;;;;11.39;100.00;98827.69;20894619;28;20646;-71
2022/11/16 17:39:18;;;;;;;6.82;2.72;;;;;;;11.42;100.00;98814.47;20925624;28;20424;-71
2022/11/16 17:49:19;;;;;;;8.20;3.03;;;;;;;11.47;100.00;98795.00;20975942;28;20045;-72
2022/11/16 17:59:21;;;;;;;12.70;3.70;;;;;;;11.40;100.00;98775.22;20974694;28;20067;-71
2022/11/16 18:09:29;;;;;;;12.35;4.43;;;;;;;11.27;100.00;98766.22;20973942;28;20143;-72
2022/11/16 18:19:30;;;;;;;21.63;10.73;;;;;;;11.13;100.00;98758.97;20946481;28;20107;-72
2022/11/16 18:29:32;;;;;;;26.33;14.02;;;;;;;11.18;100.00;98741.28;20905332;28;20055;-72
2022/11/16 18:39:33;;;;;;;9.88;3.65;;;;;;;11.17;100.00;98751.81;20957115;28;20060;-72
2022/11/16 18:49:35;;;;;;;11.43;4.13;;;;;;;11.08;100.00;98747.84;20887592;28;20098;-72
2022/11/16 18:59:37;;;;;;;20.23;8.60;;;;;;;11.08;100.00;98749.63;20957788;28;20390;-71
2022/11/16 19:09:38;;;;;;;27.52;13.48;;;;;;;11.01;100.00;98749.84;20902871;28;20052;-71
2022/11/16 19:19:39;;;;;;;22.90;10.70;;;;;;;10.89;100.00;98745.19;20985356;28;20048;-72
2022/11/16 19:29:41;;;;;;;25.02;11.77;;;;;;;10.66;100.00;98753.16;20985234;28;20105;-72
2022/11/16 19:39:42;;;;;;;18.85;9.52;;;;;;;10.43;100.00;98762.81;20983296;28;20581;-72
2022/11/16 19:49:45;;;;;;;44.38;20.73;;;;;;;10.07;100.00;98723.31;20982147;28;20500;-72
2022/11/16 19:59:46;;;;;;;16.17;6.63;;;;;;;9.70;100.00;98721.28;20983010;28;20079;-72
2022/11/16 20:09:47;;;;;;;9.02;4.13;;;;;;;9.61;100.00;98721.66;20979785;28;20098;-72
2022/11/16 20:19:53;;;;;;;11.77;4.82;;;;;;;9.50;100.00;98716.84;20927423;28;20413;-72
2022/11/16 20:29:55;;;;;;;12.93;6.43;;;;;;;9.40;100.00;98711.13;20981030;28;20419;-72
2022/11/16 20:39:56;;;;;;;11.68;5.43;;;;;;;9.24;100.00;98702.16;20978489;28;20102;-71
2022/11/16 20:49:58;;;;;;;10.27;4.07;;;;;;;9.28;100.00;98685.44;20977965;28;20102;-72
2022/11/16 20:59:59;;;;;;;134.02;43.92;;;;;;;9.30;100.00;98667.97;20977358;28;20045;-71
2022/11/16 21:10:19;;;;;;;65.47;23.52;;;;;;;9.24;100.00;98674.25;20971186;28;20045;-71
2022/11/16 21:20:20;;;;;;;17.08;7.40;;;;;;;9.12;100.00;98664.31;20927287;28;20812;-71
2022/11/16 21:30:29;;;;;;;18.67;8.93;;;;;;;9.09;100.00;98651.34;20975911;28;20040;-71
2022/11/16 21:40:30;;;;;;;13.38;5.93;;;;;;;9.15;100.00;98647.66;20974746;28;20056;-72
2022/11/16 21:50:31;;;;;;;12.73;5.00;;;;;;;9.13;100.00;98623.38;20975176;28;20055;-71
2022/11/16 22:00:33;;;;;;;11.25;3.75;;;;;;;9.18;100.00;98626.66;20972382;28;20118;-71
2022/11/16 22:10:34;;;;;;;19.48;7.32;;;;;;;9.17;100.00;98612.75;20971215;28;20393;-71
2022/11/16 22:20:36;;;;;;;14.90;7.63;;;;;;;9.20;100.00;98617.03;20935284;28;20547;-71
2022/11/16 22:30:37;;;;;;;13.57;4.72;;;;;;;9.17;100.00;98607.53;20888841;28;20095;-71
2022/11/16 22:40:38;;;;;;;16.02;5.78;;;;;;;9.23;100.00;98593.38;20898914;28;20053;-71
2022/11/16 22:50:40;;;;;;;17.98;7.32;;;;;;;9.16;100.00;98586.72;20905346;28;20053;-70
2022/11/16 23:00:42;;;;;;;16.73;8.80;;;;;;;9.19;100.00;98568.28;20917202;28;20424;-72
2022/11/16 23:31:23;;;;;;;12.82;5.15;;;;;;;8.92;100.00;98510.22;20911571;28;20471;-72
2022/11/16 23:51:45;;;;;;;10.57;4.32;;;;;;;8.94;100.00;98471.84;20910341;28;20045;-74
